Time;durP1;ratioP1;P1;durP2;ratioP2;P2;SDS_P1;SDS_P2;PMS_P1;PMS_P2;Temp;Humidity;BMP_temperature;BMP_pressure;BME280_temperature;BME280_humidity;BME280_pressure;Samples;Min_cycle;Max_cycle;Signal;HPM_P1;HPM_P2
2022/10/30 00:00:35;;;;;;;3.80;2.43;;;18.10;46.60;;;;;;4989466;28;20518;-73
2022/10/30 00:03:00;;;;;;;2.70;1.70;;;18.10;46.40;;;;;;4987669;28;20515;-74
2022/10/30 00:05:26;;;;;;;2.40;1.40;;;18.20;46.60;;;;;;4968217;28;20193;-75
2022/10/30 00:07:54;;;;;;;2.30;1.60;;;18.20;46.30;;;;;;4986164;28;20214;-74
2022/10/30 00:10:20;;;;;;;2.00;1.30;;;18.10;46.90;;;;;;4993140;28;20659;-74
2022/10/30 00:12:46;;;;;;;1.93;1.27;;;18.10;46.50;;;;;;4984316;28;20452;-75
2022/10/30 00:15:11;;;;;;;1.97;1.30;;;18.10;46.70;;;;;;4988140;28;20721;-74
2022/10/30 00:17:37;;;;;;;3.33;2.00;;;18.00;47.10;;;;;;4985900;28;20202;-73
2022/10/30 00:20:03;;;;;;;1.90;1.30;;;18.00;47.10;;;;;;4975006;28;20229;-76
2022/10/30 00:22:29;;;;;;;2.10;1.30;;;18.00;46.40;;;;;;4981048;28;20686;-74
2022/10/30 00:24:54;;;;;;;5.13;1.67;;;18.00;46.50;;;;;;4981179;28;20438;-73
2022/10/30 00:27:20;;;;;;;2.30;1.40;;;17.80;47.00;;;;;;4991698;28;20186;-74
2022/10/30 00:29:46;;;;;;;2.23;1.47;;;17.90;47.00;;;;;;4981780;28;20179;-74
2022/10/30 00:32:12;;;;;;;3.40;1.73;;;17.90;46.70;;;;;;4982786;28;20192;-73
2022/10/30 00:34:37;;;;;;;2.10;1.43;;;17.90;47.40;;;;;;4977245;28;20190;-73
2022/10/30 00:37:03;;;;;;;2.53;1.33;;;18.00;46.80;;;;;;4989303;28;21083;-74
2022/10/30 00:39:28;;;;;;;2.33;1.60;;;17.90;46.90;;;;;;4984840;28;20206;-74
2022/10/30 00:41:54;;;;;;;8.63;3.23;;;17.80;47.60;;;;;;4983308;28;20205;-74
2022/10/30 00:44:37;;;;;;;4.03;1.80;;;17.80;48.00;;;;;;4991401;28;20666;-74
2022/10/30 00:47:09;;;;;;;3.17;1.77;;;17.80;47.90;;;;;;4988649;28;20221;-74
2022/10/30 00:49:39;;;;;;;2.33;1.73;;;17.70;48.50;;;;;;4993466;28;20546;-74
2022/10/30 00:52:07;;;;;;;2.10;1.50;;;17.80;48.30;;;;;;4984781;28;20424;-74
2022/10/30 00:54:35;;;;;;;2.50;1.53;;;18.00;48.00;;;;;;4980670;28;20429;-75
2022/10/30 00:57:03;;;;;;;2.03;1.40;;;18.10;47.60;;;;;;4986323;28;20964;-75
2022/10/30 00:59:31;;;;;;;2.50;1.83;;;18.10;48.40;;;;;;4984482;28;20495;-74
2022/10/30 01:01:59;;;;;;;4.80;2.00;;;18.10;47.90;;;;;;4984325;28;20818;-75
2022/10/30 01:04:25;;;;;;;2.00;1.40;;;18.20;46.50;;;;;;4985337;28;20424;-75
2022/10/30 01:06:52;;;;;;;2.23;1.70;;;18.20;45.20;;;;;;4982269;28;20504;-74
2022/10/30 01:09:21;;;;;;;2.03;1.40;;;18.40;44.90;;;;;;4990804;28;20454;-74
2022/10/30 01:11:47;;;;;;;3.20;2.03;;;18.00;45.70;;;;;;4982927;28;20447;-74
2022/10/30 01:14:16;;;;;;;2.07;1.40;;;17.30;48.50;;;;;;4994421;28;20432;-74
2022/10/30 01:17:20;;;;;;;3.13;2.00;;;17.30;49.30;;;;;;4984085;28;20466;-71
2022/10/30 01:20:07;;;;;;;2.30;1.37;;;17.40;48.30;;;;;;4975508;28;20444;-74
2022/10/30 01:22:44;;;;;;;6.63;2.13;;;17.50;48.70;;;;;;4982316;28;20517;-75
2022/10/30 01:25:34;;;;;;;2.13;1.43;;;17.80;47.80;;;;;;4983324;28;20429;-74
2022/10/30 01:28:15;;;;;;;2.10;1.40;;;18.00;47.10;;;;;;4986779;28;20564;-74
2022/10/30 01:30:46;;;;;;;2.97;2.10;;;18.20;45.90;;;;;;4987436;28;20520;-75
2022/10/30 01:33:43;;;;;;;2.60;1.57;;;18.20;46.00;;;;;;4988260;28;20442;-74
2022/10/30 01:36:21;;;;;;;2.10;1.47;;;18.50;44.50;;;;;;4984427;28;20444;-74
2022/10/30 01:38:54;;;;;;;2.93;1.97;;;18.30;46.20;;;;;;4989279;28;20958;-75
2022/10/30 01:41:20;;;;;;;2.33;1.40;;;18.20;46.20;;;;;;4971508;28;20467;-74
2022/10/30 01:43:49;;;;;;;2.30;1.50;;;18.40;44.50;;;;;;4991863;28;20511;-74
2022/10/30 01:46:53;;;;;;;10.10;2.07;;;18.50;43.40;;;;;;4994022;28;20293;-76
2022/10/30 01:49:40;;;;;;;3.27;1.83;;;18.40;45.10;;;;;;4941011;28;20480;-76
2022/10/30 01:52:38;;;;;;;8.03;1.90;;;18.20;45.20;;;;;;4990802;28;20532;-75
2022/10/30 01:55:28;;;;;;;1.90;1.30;;;18.10;46.00;;;;;;4978683;28;20447;-74
2022/10/30 01:58:16;;;;;;;3.10;1.70;;;18.10;46.30;;;;;;4983633;28;20484;-74
2022/10/30 02:00:44;;;;;;;2.30;1.50;;;18.00;46.10;;;;;;4986642;28;21058;-75
2022/10/30 02:03:10;;;;;;;3.03;1.77;;;17.90;45.70;;;;;;4998634;28;20435;-74
2022/10/30 02:05:41;;;;;;;2.80;1.70;;;18.00;45.20;;;;;;4990885;28;20921;-75
2022/10/30 02:08:06;;;;;;;3.50;1.90;;;17.90;45.20;;;;;;4980025;28;20683;-75
2022/10/30 02:10:37;;;;;;;2.30;1.40;;;17.80;46.90;;;;;;4984009;28;20433;-74
2022/10/30 02:13:03;;;;;;;4.33;1.57;;;17.60;47.20;;;;;;4991818;28;20185;-73
2022/10/30 02:15:30;;;;;;;2.67;1.70;;;17.60;46.70;;;;;;4988233;28;20437;-74
2022/10/30 02:17:56;;;;;;;2.30;1.40;;;17.60;47.00;;;;;;4984631;28;20988;-74
2022/10/30 02:20:22;;;;;;;2.10;1.40;;;17.60;46.80;;;;;;4986484;28;20477;-75
2022/10/30 02:22:49;;;;;;;2.30;1.50;;;17.70;46.30;;;;;;4989808;28;20187;-74
2022/10/30 02:25:15;;;;;;;2.70;1.70;;;17.80;45.40;;;;;;4995820;28;20437;-74
2022/10/30 02:27:41;;;;;;;3.00;2.00;;;17.70;45.30;;;;;;4997669;28;20975;-74
2022/10/30 02:30:08;;;;;;;3.37;1.77;;;17.80;45.90;;;;;;4987055;28;20444;-74
2022/10/30 02:32:34;;;;;;;2.03;1.33;;;17.70;46.30;;;;;;4987232;28;21042;-75
2022/10/30 02:35:00;;;;;;;3.27;2.07;;;17.60;46.40;;;;;;4996474;28;20422;-74
2022/10/30 02:37:26;;;;;;;3.00;1.80;;;17.60;46.20;;;;;;4988328;28;20206;-74
2022/10/30 02:39:51;;;;;;;2.20;1.40;;;17.60;46.50;;;;;;4990474;28;20251;-73
2022/10/30 02:42:17;;;;;;;2.23;1.60;;;17.50;47.00;;;;;;4989119;28;20946;-74
2022/10/30 02:44:43;;;;;;;2.60;1.87;;;17.50;47.30;;;;;;4996595;28;20224;-71
2022/10/30 02:47:08;;;;;;;2.90;1.43;;;17.40;47.40;;;;;;4985924;28;20272;-75
2022/10/30 02:49:34;;;;;;;1.90;1.30;;;17.40;47.60;;;;;;4984521;28;20261;-74
2022/10/30 02:51:59;;;;;;;7.30;1.93;;;17.60;46.80;;;;;;4979669;28;20186;-74
2022/10/30 02:54:25;;;;;;;2.40;1.50;;;17.60;47.30;;;;;;4992155;28;20211;-74
2022/10/30 02:56:51;;;;;;;4.90;1.80;;;17.50;48.00;;;;;;4993292;28;20230;-74
2022/10/30 02:59:16;;;;;;;5.30;2.17;;;17.50;47.60;;;;;;4991092;28;20188;-74
2022/10/30 03:01:42;;;;;;;2.40;1.70;;;17.60;47.10;;;;;;4989994;28;20213;-75
2022/10/30 03:04:08;;;;;;;2.90;1.80;;;17.70;47.10;;;;;;4987189;28;20572;-74
2022/10/30 03:06:34;;;;;;;1.90;1.20;;;17.80;45.30;;;;;;4990974;28;20754;-75
2022/10/30 03:09:00;;;;;;;3.47;1.60;;;17.80;45.00;;;;;;4990286;28;20612;-75
2022/10/30 03:11:26;;;;;;;8.30;2.37;;;17.80;45.60;;;;;;5000462;28;20530;-75
2022/10/30 03:13:51;;;;;;;14.80;1.87;;;17.70;45.80;;;;;;4993531;28;20186;-74
2022/10/30 03:16:30;;;;;;;1.90;1.20;;;17.70;46.00;;;;;;5002227;28;20888;-76
2022/10/30 03:18:57;;;;;;;2.40;1.30;;;17.60;46.60;;;;;;4993661;28;20192;-74
2022/10/30 03:21:24;;;;;;;2.07;1.37;;;17.60;46.30;;;;;;4989596;28;20472;-74
2022/10/30 03:23:51;;;;;;;2.93;1.80;;;17.50;47.00;;;;;;4990488;28;20441;-75
2022/10/30 03:26:17;;;;;;;3.50;1.77;;;17.30;47.40;;;;;;5000978;28;20551;-75
2022/10/30 03:28:43;;;;;;;4.83;1.77;;;16.90;48.30;;;;;;4999834;28;20452;-74
2022/10/30 03:31:15;;;;;;;2.60;1.70;;;16.70;49.50;;;;;;4992409;28;20425;-75
2022/10/30 03:33:41;;;;;;;2.20;1.50;;;16.90;49.70;;;;;;4987878;28;20488;-74
2022/10/30 03:36:08;;;;;;;2.20;1.40;;;17.10;48.30;;;;;;4989036;28;20924;-75
2022/10/30 03:38:34;;;;;;;2.20;1.30;;;17.20;48.20;;;;;;4983275;28;20269;-75
2022/10/30 03:41:00;;;;;;;2.53;1.60;;;17.20;47.20;;;;;;4991886;28;20610;-75
2022/10/30 03:43:26;;;;;;;8.00;2.60;;;17.20;46.90;;;;;;5007797;28;20534;-75
2022/10/30 03:45:54;;;;;;;3.03;1.63;;;17.10;47.30;;;;;;5004572;28;20185;-74
2022/10/30 03:48:25;;;;;;;2.63;1.77;;;17.10;47.40;;;;;;4993011;28;20555;-74
2022/10/30 03:50:54;;;;;;;3.90;1.93;;;17.20;46.70;;;;;;4992833;28;20955;-74
2022/10/30 03:53:22;;;;;;;2.13;1.43;;;17.30;46.50;;;;;;4994288;28;20448;-74
2022/10/30 03:55:48;;;;;;;3.03;1.47;;;17.10;46.80;;;;;;5005369;28;20585;-73
2022/10/30 03:58:14;;;;;;;1.90;1.27;;;17.00;47.70;;;;;;4987228;28;21011;-75
2022/10/30 04:00:39;;;;;;;2.20;1.40;;;17.00;47.10;;;;;;4993534;28;20457;-74
2022/10/30 04:03:07;;;;;;;3.33;2.07;;;17.00;47.60;;;;;;4992854;28;20200;-74
2022/10/30 04:05:32;;;;;;;2.00;1.20;;;16.90;47.70;;;;;;4983760;28;20256;-75
2022/10/30 04:08:04;;;;;;;4.17;2.00;;;16.80;47.90;;;;;;4992718;28;20911;-74
2022/10/30 04:10:30;;;;;;;4.60;2.03;;;16.90;47.60;;;;;;4985479;28;20513;-74
2022/10/30 04:13:04;;;;;;;2.87;1.60;;;17.00;47.10;;;;;;4992469;28;20444;-74
2022/10/30 04:15:30;;;;;;;1.83;1.10;;;16.90;47.50;;;;;;4991198;28;20576;-74
2022/10/30 04:17:55;;;;;;;2.10;1.33;;;17.00;47.70;;;;;;4969396;28;21016;-74
2022/10/30 04:20:23;;;;;;;2.80;1.60;;;16.80;47.70;;;;;;4990904;28;20460;-73
2022/10/30 04:22:54;;;;;;;2.63;1.83;;;16.80;47.80;;;;;;4987882;28;20179;-74
2022/10/30 04:25:19;;;;;;;2.20;1.40;;;16.80;47.50;;;;;;4988602;28;20436;-74
2022/10/30 04:27:45;;;;;;;2.43;1.43;;;16.80;47.60;;;;;;4987256;28;20439;-74
2022/10/30 04:30:11;;;;;;;2.47;1.50;;;16.80;47.60;;;;;;4992295;28;20185;-74
2022/10/30 04:32:46;;;;;;;2.00;1.20;;;16.90;47.00;;;;;;4991567;28;20231;-73
2022/10/30 04:35:11;;;;;;;2.20;1.40;;;16.90;47.60;;;;;;4984523;28;20452;-73
2022/10/30 04:37:37;;;;;;;2.80;1.67;;;16.90;47.30;;;;;;4987135;28;20462;-75
2022/10/30 04:40:03;;;;;;;2.30;1.40;;;17.00;46.90;;;;;;4984428;28;20181;-74
2022/10/30 04:42:28;;;;;;;2.70;1.67;;;16.80;48.30;;;;;;4986437;28;20199;-74
2022/10/30 04:44:54;;;;;;;2.93;1.43;;;16.80;47.80;;;;;;4987266;28;20507;-73
2022/10/30 04:47:20;;;;;;;2.10;1.20;;;16.80;47.10;;;;;;4992515;28;20220;-73
2022/10/30 04:49:45;;;;;;;6.27;3.00;;;16.80;47.50;;;;;;4986772;28;20179;-74
2022/10/30 04:52:11;;;;;;;2.30;1.40;;;16.70;47.80;;;;;;4985650;28;20315;-75
2022/10/30 04:54:36;;;;;;;2.10;1.30;;;16.80;47.30;;;;;;4981641;28;20211;-73
2022/10/30 04:57:02;;;;;;;3.53;1.97;;;16.90;46.50;;;;;;4982185;28;20275;-73
2022/10/30 04:59:28;;;;;;;2.37;1.47;;;16.70;46.80;;;;;;4986265;28;20714;-74
2022/10/30 05:01:53;;;;;;;2.90;1.63;;;16.80;47.20;;;;;;4991828;28;20627;-75
2022/10/30 05:04:19;;;;;;;3.90;2.13;;;16.70;47.40;;;;;;4994299;28;20185;-74
2022/10/30 05:06:44;;;;;;;2.60;1.63;;;16.70;46.60;;;;;;4990050;28;20196;-74
2022/10/30 05:09:10;;;;;;;2.10;1.20;;;16.80;46.50;;;;;;4990472;28;20190;-74
2022/10/30 05:11:35;;;;;;;5.60;2.40;;;16.60;46.30;;;;;;4991175;28;20256;-71
2022/10/30 05:14:01;;;;;;;5.47;2.30;;;16.50;47.40;;;;;;4975802;28;20178;-74
2022/10/30 05:16:27;;;;;;;2.30;1.50;;;16.70;47.80;;;;;;4988096;28;20264;-75
2022/10/30 05:18:52;;;;;;;3.53;1.43;;;16.60;46.70;;;;;;4982662;28;20200;-75
2022/10/30 05:21:18;;;;;;;5.50;1.80;;;16.70;47.30;;;;;;4995671;28;20737;-75
2022/10/30 05:23:43;;;;;;;2.13;1.20;;;16.40;47.00;;;;;;4990650;28;20219;-75
2022/10/30 05:26:09;;;;;;;2.10;1.20;;;16.30;47.30;;;;;;4986531;28;20176;-74
2022/10/30 05:28:34;;;;;;;2.70;1.60;;;16.40;47.20;;;;;;4989123;28;20663;-75
2022/10/30 05:31:00;;;;;;;2.40;1.53;;;16.40;47.40;;;;;;4990764;28;20179;-74
2022/10/30 05:33:26;;;;;;;2.30;1.30;;;16.30;47.60;;;;;;4978613;28;20212;-73
2022/10/30 05:35:51;;;;;;;3.00;1.70;;;16.30;47.70;;;;;;4973377;28;20531;-73
2022/10/30 05:38:17;;;;;;;4.63;2.13;;;16.30;47.20;;;;;;4987842;28;20259;-73
2022/10/30 05:40:45;;;;;;;2.60;1.50;;;16.30;47.30;;;;;;4988236;28;20604;-73
2022/10/30 05:43:11;;;;;;;2.33;1.30;;;16.30;47.00;;;;;;4989253;28;20842;-73
2022/10/30 05:45:37;;;;;;;4.17;1.53;;;16.30;47.10;;;;;;4985362;28;20424;-75
2022/10/30 05:48:04;;;;;;;2.83;1.50;;;16.20;47.30;;;;;;4947852;28;1077832;-75
2022/10/30 05:50:30;;;;;;;4.30;1.97;;;16.20;47.50;;;;;;4987952;28;20705;-75
2022/10/30 05:52:57;;;;;;;2.47;1.40;;;16.30;48.10;;;;;;4984564;28;20438;-75
2022/10/30 05:55:23;;;;;;;3.00;1.87;;;16.10;48.40;;;;;;4983157;28;20435;-74
2022/10/30 05:57:49;;;;;;;2.70;1.50;;;16.20;47.40;;;;;;4986102;28;20521;-74
2022/10/30 06:00:15;;;;;;;2.80;1.50;;;16.30;47.10;;;;;;4987416;28;20448;-74
2022/10/30 06:02:41;;;;;;;4.13;1.93;;;16.20;47.30;;;;;;4989086;28;20204;-74
2022/10/30 06:05:07;;;;;;;3.13;1.50;;;16.30;46.80;;;;;;4987197;28;20925;-74
2022/10/30 06:07:32;;;;;;;2.20;1.20;;;16.20;47.40;;;;;;4985930;28;20226;-74
2022/10/30 06:09:58;;;;;;;3.03;1.50;;;16.20;47.80;;;;;;4985705;28;20780;-71
2022/10/30 06:12:23;;;;;;;3.40;2.17;;;16.00;48.10;;;;;;4990065;28;20206;-74
2022/10/30 06:14:49;;;;;;;3.20;1.90;;;16.20;47.80;;;;;;4985573;28;20189;-74
2022/10/30 06:17:14;;;;;;;2.80;1.50;;;16.20;48.40;;;;;;4989173;28;20210;-74
2022/10/30 06:19:40;;;;;;;4.77;1.63;;;16.10;47.50;;;;;;4987069;28;20204;-73
2022/10/30 06:22:06;;;;;;;3.47;1.80;;;16.20;47.10;;;;;;4989859;28;20215;-74
2022/10/30 06:24:31;;;;;;;9.10;2.03;;;16.20;47.30;;;;;;4979644;28;20772;-72
2022/10/30 06:26:57;;;;;;;6.03;1.40;;;16.10;48.60;;;;;;4987786;28;20738;-75
2022/10/30 06:29:22;;;;;;;2.53;1.30;;;16.20;48.50;;;;;;4991572;28;20188;-75
2022/10/30 06:31:48;;;;;;;3.00;1.60;;;16.30;47.60;;;;;;4989275;28;20574;-75
2022/10/30 06:34:13;;;;;;;2.33;1.17;;;16.30;47.60;;;;;;4986367;28;20211;-75
2022/10/30 06:36:39;;;;;;;2.83;1.50;;;16.30;48.10;;;;;;4987294;28;20293;-75
2022/10/30 06:39:05;;;;;;;2.70;1.43;;;16.20;48.30;;;;;;4987732;28;20597;-75
2022/10/30 06:41:30;;;;;;;2.50;1.40;;;16.20;49.00;;;;;;4978562;28;20207;-75
2022/10/30 06:43:56;;;;;;;4.77;2.40;;;16.30;48.60;;;;;;4979876;28;20191;-75
2022/10/30 06:46:22;;;;;;;2.83;1.40;;;16.40;48.90;;;;;;4988399;28;20224;-75
2022/10/30 06:48:47;;;;;;;2.60;1.43;;;16.40;48.60;;;;;;4994484;28;21216;-74
2022/10/30 06:51:14;;;;;;;2.30;1.13;;;16.40;48.30;;;;;;4993095;28;20216;-73
2022/10/30 06:53:40;;;;;;;3.13;1.30;;;16.50;48.80;;;;;;4993112;28;20198;-71
2022/10/30 06:56:07;;;;;;;3.13;1.50;;;16.50;48.90;;;;;;4987804;28;20455;-71
2022/10/30 06:58:37;;;;;;;3.13;1.40;;;16.50;48.70;;;;;;4994662;28;20233;-74
2022/10/30 07:01:04;;;;;;;3.27;1.70;;;16.70;48.80;;;;;;4994068;28;20468;-73
2022/10/30 07:03:30;;;;;;;2.50;1.40;;;16.70;48.60;;;;;;4996729;28;20511;-73
2022/10/30 07:05:56;;;;;;;2.50;1.30;;;17.00;47.10;;;;;;4999426;28;20510;-74
2022/10/30 07:08:22;;;;;;;6.63;2.93;;;17.00;47.40;;;;;;4994914;28;20964;-75
2022/10/30 07:10:47;;;;;;;3.77;1.93;;;16.80;47.80;;;;;;4994374;28;20188;-74
2022/10/30 07:13:13;;;;;;;3.97;2.10;;;16.90;48.30;;;;;;4987589;28;20253;-74
2022/10/30 07:15:39;;;;;;;2.70;1.50;;;17.00;47.90;;;;;;4995746;28;20626;-74
2022/10/30 07:18:04;;;;;;;2.77;1.57;;;17.20;46.80;;;;;;4993219;28;20208;-74
2022/10/30 07:20:33;;;;;;;2.97;1.63;;;17.20;47.20;;;;;;4987057;28;20205;-74
2022/10/30 07:23:00;;;;;;;3.10;1.73;;;17.40;46.90;;;;;;4976504;28;20544;-74
2022/10/30 07:25:26;;;;;;;2.60;1.40;;;17.40;47.20;;;;;;5006144;28;20478;-74
2022/10/30 07:27:52;;;;;;;2.70;1.40;;;17.40;47.50;;;;;;4995646;28;20484;-74
2022/10/30 07:30:20;;;;;;;4.83;2.60;;;17.70;46.50;;;;;;4994207;28;20170;-77
2022/10/30 07:32:54;;;;;;;4.13;2.30;;;17.70;46.00;;;;;;4994499;28;20900;-77
2022/10/30 07:35:20;;;;;;;2.40;1.30;;;17.80;46.30;;;;;;5010357;28;20411;-78
2022/10/30 07:37:46;;;;;;;7.80;1.60;;;17.70;45.70;;;;;;5000030;28;20460;-79
2022/10/30 07:40:11;;;;;;;3.27;1.70;;;17.70;46.40;;;;;;4997648;28;20688;-75
2022/10/30 07:42:37;;;;;;;2.40;1.47;;;17.80;46.20;;;;;;4994693;28;20179;-77
2022/10/30 07:45:03;;;;;;;2.57;1.40;;;18.00;45.10;;;;;;4993490;28;20190;-78
2022/10/30 07:47:28;;;;;;;2.40;1.50;;;18.00;45.40;;;;;;4984293;28;20210;-77
2022/10/30 07:49:54;;;;;;;3.07;1.60;;;18.30;44.50;;;;;;4979155;28;20928;-78
2022/10/30 07:52:20;;;;;;;8.13;1.67;;;18.40;43.90;;;;;;4986191;28;20823;-78
2022/10/30 07:54:45;;;;;;;2.27;1.33;;;18.40;44.30;;;;;;4981186;28;20189;-77
2022/10/30 07:57:11;;;;;;;2.10;1.27;;;18.50;43.60;;;;;;5008503;28;20208;-77
2022/10/30 07:59:36;;;;;;;5.47;1.80;;;18.50;44.30;;;;;;5007167;28;20638;-75
2022/10/30 08:02:02;;;;;;;3.00;1.87;;;18.50;43.40;;;;;;4995275;28;20210;-77
2022/10/30 08:04:27;;;;;;;3.90;1.97;;;18.40;45.00;;;;;;5003955;28;20181;-77
2022/10/30 08:06:53;;;;;;;2.40;1.60;;;18.50;43.40;;;;;;4986230;28;20609;-77
2022/10/30 08:09:19;;;;;;;2.30;1.50;;;18.60;43.00;;;;;;5012762;28;20187;-77
2022/10/30 08:11:44;;;;;;;2.97;1.90;;;18.70;42.90;;;;;;4986609;28;20186;-76
2022/10/30 08:14:10;;;;;;;4.73;2.07;;;18.90;41.10;;;;;;4989065;28;20186;-76
2022/10/30 08:16:35;;;;;;;2.00;1.30;;;18.70;41.90;;;;;;4991912;28;20217;-77
2022/10/30 08:19:01;;;;;;;2.10;1.30;;;18.60;41.40;;;;;;4992708;28;20567;-76
2022/10/30 08:21:27;;;;;;;2.10;1.37;;;18.60;41.80;;;;;;4999910;28;20244;-76
2022/10/30 08:23:52;;;;;;;2.40;1.60;;;19.00;40.70;;;;;;5002099;28;20325;-76
2022/10/30 08:26:18;;;;;;;7.90;2.77;;;19.30;39.30;;;;;;4996036;28;20199;-76
2022/10/30 08:28:43;;;;;;;2.60;1.60;;;19.20;39.50;;;;;;4990541;28;20293;-76
2022/10/30 08:31:09;;;;;;;2.03;1.40;;;18.90;39.10;;;;;;4985554;28;20645;-77
2022/10/30 08:33:35;;;;;;;4.47;2.13;;;18.40;40.20;;;;;;4993852;28;20727;-77
2022/10/30 08:36:01;;;;;;;2.53;1.40;;;18.60;39.20;;;;;;4994150;28;20194;-77
2022/10/30 08:38:28;;;;;;;2.13;1.50;;;19.10;38.20;;;;;;4997064;28;20183;-76
2022/10/30 08:40:54;;;;;;;2.10;1.50;;;19.30;37.60;;;;;;4996186;28;20500;-77
2022/10/30 08:43:20;;;;;;;1.83;1.20;;;19.30;37.90;;;;;;4977451;28;20414;-76
2022/10/30 08:45:46;;;;;;;2.20;1.50;;;19.20;37.00;;;;;;4992651;28;20438;-77
2022/10/30 08:48:14;;;;;;;7.00;1.70;;;19.30;36.90;;;;;;4993042;28;20524;-77
2022/10/30 08:50:40;;;;;;;6.60;1.87;;;19.10;37.50;;;;;;4991850;28;20188;-76
2022/10/30 08:53:07;;;;;;;1.80;1.30;;;19.30;37.30;;;;;;4993285;28;20800;-77
2022/10/30 08:55:34;;;;;;;1.77;1.20;;;19.50;37.40;;;;;;4989197;28;20433;-77
2022/10/30 08:58:00;;;;;;;2.10;1.60;;;19.70;36.10;;;;;;4992663;28;20837;-78
2022/10/30 09:00:27;;;;;;;2.13;1.47;;;19.60;36.50;;;;;;4991790;28;20444;-77
2022/10/30 09:02:52;;;;;;;1.90;1.30;;;19.30;37.20;;;;;;4987816;28;20842;-75
2022/10/30 09:05:19;;;;;;;2.10;1.30;;;19.10;37.40;;;;;;4991083;28;20569;-75
2022/10/30 09:07:45;;;;;;;1.90;1.40;;;19.00;37.80;;;;;;4991432;28;20233;-76
2022/10/30 09:10:10;;;;;;;4.10;1.80;;;18.70;38.80;;;;;;4990009;28;20807;-75
2022/10/30 09:12:36;;;;;;;2.03;1.50;;;18.80;39.10;;;;;;4986873;28;20449;-75
2022/10/30 09:15:02;;;;;;;4.23;2.60;;;18.80;39.50;;;;;;4964289;28;20184;-76
2022/10/30 09:17:28;;;;;;;3.30;1.90;;;18.70;40.40;;;;;;4992383;28;20216;-77
2022/10/30 09:19:54;;;;;;;1.80;1.30;;;18.70;40.50;;;;;;4989914;28;20447;-77
2022/10/30 09:22:19;;;;;;;2.40;1.57;;;19.00;39.50;;;;;;4993243;28;20211;-77
2022/10/30 09:24:45;;;;;;;3.03;1.80;;;19.50;38.90;;;;;;4977036;28;20192;-78
2022/10/30 09:27:10;;;;;;;3.77;1.53;;;19.40;38.40;;;;;;4998319;28;20277;-79
2022/10/30 09:29:36;;;;;;;1.80;1.30;;;19.30;38.10;;;;;;5000282;28;20529;-79
2022/10/30 09:32:03;;;;;;;3.43;1.50;;;19.20;38.60;;;;;;4998440;28;20192;-78
2022/10/30 09:34:29;;;;;;;2.27;1.60;;;18.90;39.50;;;;;;4991390;28;20183;-77
2022/10/30 09:36:55;;;;;;;2.27;1.63;;;18.80;39.60;;;;;;4991154;28;20915;-77
2022/10/30 09:39:21;;;;;;;1.70;1.20;;;18.80;40.20;;;;;;4991387;28;20450;-77
2022/10/30 09:41:50;;;;;;;1.90;1.40;;;19.20;39.50;;;;;;4971149;28;20599;-77
2022/10/30 09:44:48;;;;;;;3.07;2.47;;;19.90;38.50;;;;;;4989443;28;20920;-76
2022/10/30 09:47:39;;;;;;;2.83;1.50;;;20.20;36.50;;;;;;4984020;28;20543;-77
2022/10/30 09:50:25;;;;;;;2.10;1.53;;;20.10;36.60;;;;;;4986417;28;20556;-77
2022/10/30 09:53:10;;;;;;;1.70;1.20;;;19.80;37.20;;;;;;4992577;28;20935;-77
2022/10/30 09:55:57;;;;;;;2.00;1.50;;;19.90;37.00;;;;;;4988612;28;20440;-76
2022/10/30 09:58:52;;;;;;;1.70;1.20;;;20.50;35.60;;;;;;4988621;28;20924;-77
2022/10/30 10:01:33;;;;;;;3.17;1.60;;;20.70;35.70;;;;;;4952873;28;20924;-76
2022/10/30 10:04:29;;;;;;;1.93;1.40;;;20.80;34.00;;;;;;4997169;28;20437;-76
2022/10/30 10:07:15;;;;;;;1.93;1.30;;;20.60;34.60;;;;;;5002220;28;20465;-76
2022/10/30 10:09:43;;;;;;;2.00;1.40;;;20.40;34.10;;;;;;4991922;28;20444;-77
2022/10/30 10:12:42;;;;;;;2.27;1.47;;;20.70;33.30;;;;;;4992312;28;20438;-75
2022/10/30 10:15:20;;;;;;;3.87;1.90;;;20.60;33.30;;;;;;4988084;28;20439;-76
2022/10/30 10:17:46;;;;;;;4.30;2.10;;;20.70;32.70;;;;;;4993800;28;20465;-78
2022/10/30 10:20:27;;;;;;;2.20;1.40;;;21.20;33.40;;;;;;4999271;28;20448;-78
2022/10/30 10:22:56;;;;;;;3.07;1.73;;;21.70;31.00;;;;;;4995522;28;20785;-78
2022/10/30 10:25:23;;;;;;;3.17;1.83;;;21.30;31.30;;;;;;4996256;28;20452;-77
2022/10/30 10:28:24;;;;;;;2.40;1.63;;;21.50;31.20;;;;;;4999778;28;20453;-77
2022/10/30 10:31:17;;;;;;;2.40;1.37;;;21.90;30.60;;;;;;4922408;29;20453;-77
2022/10/30 10:34:02;;;;;;;2.53;1.70;;;22.30;30.60;;;;;;4996836;28;20442;-76
2022/10/30 10:36:43;;;;;;;3.40;1.60;;;22.90;28.90;;;;;;4977923;28;20464;-77
2022/10/30 10:39:12;;;;;;;2.60;1.30;;;22.90;29.00;;;;;;4976204;28;21063;-77
2022/10/30 10:42:00;;;;;;;2.70;1.40;;;23.20;29.10;;;;;;4995000;28;20461;-77
2022/10/30 10:44:47;;;;;;;2.67;1.30;;;23.60;28.20;;;;;;4997108;28;20448;-76
2022/10/30 10:47:35;;;;;;;2.70;1.30;;;23.70;28.20;;;;;;5001079;28;20467;-78
2022/10/30 10:50:27;;;;;;;3.20;1.30;;;24.50;26.70;;;;;;5005411;28;20441;-81
2022/10/30 10:52:59;;;;;;;3.10;1.47;;;24.50;27.60;;;;;;4995260;28;20471;-76
2022/10/30 10:55:30;;;;;;;2.63;1.30;;;24.30;27.00;;;;;;5015483;28;20431;-77
2022/10/30 10:58:03;;;;;;;2.70;1.20;;;24.50;27.20;;;;;;5016791;28;20449;-76
2022/10/30 11:00:29;;;;;;;2.50;1.13;;;24.80;27.60;;;;;;5010237;28;20418;-77
2022/10/30 11:03:40;;;;;;;3.13;1.50;;;25.00;27.00;;;;;;5016284;28;20440;-78
2022/10/30 11:06:19;;;;;;;3.40;1.70;;;24.90;26.90;;;;;;4900417;29;20904;-76
2022/10/30 11:08:45;;;;;;;4.20;1.97;;;24.30;28.20;;;;;;4902688;29;20472;-77
2022/10/30 11:11:11;;;;;;;3.30;1.77;;;24.30;28.00;;;;;;4907890;29;20421;-77
2022/10/30 11:13:40;;;;;;;4.43;1.70;;;24.40;27.50;;;;;;4929583;29;20503;-78
2022/10/30 11:16:12;;;;;;;2.50;1.20;;;24.20;27.30;;;;;;4916896;29;20180;-77
2022/10/30 11:18:38;;;;;;;3.10;1.47;;;24.80;27.40;;;;;;4936838;28;20542;-78
2022/10/30 11:21:23;;;;;;;3.23;1.43;;;25.40;28.00;;;;;;4921899;29;20464;-78
2022/10/30 11:23:49;;;;;;;2.60;1.30;;;25.60;26.50;;;;;;4921984;29;20424;-77
2022/10/30 11:26:18;;;;;;;3.13;1.60;;;25.60;25.90;;;;;;4922820;29;20543;-77
2022/10/30 11:29:02;;;;;;;2.60;1.23;;;25.60;25.60;;;;;;4922745;29;20436;-78
2022/10/30 11:31:39;;;;;;;4.60;2.13;;;25.60;25.60;;;;;;4900578;29;20851;-78
2022/10/30 11:34:17;;;;;;;4.20;1.60;;;25.60;25.40;;;;;;4907386;29;20420;-77
2022/10/30 11:36:43;;;;;;;3.03;1.30;;;25.50;25.40;;;;;;4965219;28;20497;-78
2022/10/30 11:39:25;;;;;;;2.80;1.30;;;26.20;25.50;;;;;;5010758;28;20516;-78
2022/10/30 11:42:05;;;;;;;2.80;1.30;;;26.70;25.20;;;;;;5008271;28;20455;-79
2022/10/30 11:44:50;;;;;;;2.80;1.40;;;26.70;24.30;;;;;;4997783;28;20446;-78
2022/10/30 11:47:22;;;;;;;4.40;1.80;;;27.30;23.80;;;;;;5003754;28;20545;-79
2022/10/30 11:49:58;;;;;;;4.17;1.87;;;27.60;23.40;;;;;;4985834;28;20857;-79
2022/10/30 11:52:25;;;;;;;3.93;1.73;;;27.60;23.40;;;;;;5004210;28;20443;-78
2022/10/30 11:55:20;;;;;;;3.10;1.40;;;26.50;24.30;;;;;;5000250;28;20443;-78
2022/10/30 11:57:51;;;;;;;3.87;1.67;;;26.30;25.00;;;;;;4966830;28;20461;-79
2022/10/30 12:00:29;;;;;;;4.70;1.80;;;26.10;25.70;;;;;;5004850;28;20441;-78
2022/10/30 12:02:59;;;;;;;4.90;1.57;;;26.40;24.40;;;;;;5012416;28;20656;-79
2022/10/30 12:05:24;;;;;;;3.63;1.57;;;26.70;25.30;;;;;;5000052;28;20424;-78
2022/10/30 12:08:05;;;;;;;3.70;1.50;;;26.70;23.90;;;;;;4995967;28;20448;-77
2022/10/30 12:10:32;;;;;;;3.43;1.57;;;26.70;23.90;;;;;;5005226;28;20181;-77
2022/10/30 12:13:03;;;;;;;3.10;1.20;;;26.50;24.30;;;;;;5008046;28;20428;-78
2022/10/30 12:15:36;;;;;;;3.70;1.30;;;26.20;24.40;;;;;;5002462;28;20472;-78
2022/10/30 12:18:07;;;;;;;3.60;1.40;;;26.20;24.60;;;;;;4990529;28;20474;-77
2022/10/30 12:20:36;;;;;;;3.50;1.30;;;26.50;24.40;;;;;;4993796;28;20534;-78
2022/10/30 12:23:28;;;;;;;3.33;1.47;;;26.60;24.40;;;;;;5011202;28;20882;-78
2022/10/30 12:25:57;;;;;;;3.67;1.60;;;26.50;24.60;;;;;;5009917;28;20439;-77
2022/10/30 12:28:31;;;;;;;3.60;1.50;;;26.50;24.70;;;;;;5013505;28;21185;-78
2022/10/30 12:31:11;;;;;;;3.20;1.30;;;26.70;25.20;;;;;;5016966;28;20447;-78
2022/10/30 12:33:49;;;;;;;3.20;1.30;;;27.10;24.20;;;;;;5016291;28;20408;-77
2022/10/30 12:36:22;;;;;;;3.83;1.50;;;26.80;23.70;;;;;;4990918;28;20520;-78
2022/10/30 12:38:53;;;;;;;3.50;1.57;;;26.90;24.10;;;;;;4990868;28;20534;-78
2022/10/30 12:41:25;;;;;;;3.97;1.67;;;26.60;24.10;;;;;;5007330;28;20468;-78
2022/10/30 12:44:33;;;;;;;3.07;1.10;;;26.90;24.70;;;;;;4998867;28;20437;-78
2022/10/30 12:47:23;;;;;;;3.27;1.30;;;26.80;23.80;;;;;;4992303;28;20530;-77
2022/10/30 12:50:12;;;;;;;3.80;1.70;;;26.60;23.70;;;;;;4996577;28;20452;-76
2022/10/30 12:52:50;;;;;;;3.33;1.30;;;26.60;23.70;;;;;;4960046;28;20456;-78
2022/10/30 12:55:36;;;;;;;3.60;1.50;;;26.40;24.60;;;;;;5007621;28;20504;-77
2022/10/30 12:58:27;;;;;;;5.03;1.80;;;26.70;25.00;;;;;;5010016;28;20475;-78
2022/10/30 13:01:17;;;;;;;4.97;1.47;;;27.30;23.70;;;;;;5014939;28;20461;-79